createdAt,value
2019-03-16T00:01:57.483Z,83.89
2019-03-16T00:04:22.653Z,83.57
2019-03-16T00:06:51.050Z,84.01
2019-03-16T00:09:19.456Z,84.01
2019-03-16T00:11:47.981Z,83.89
2019-03-16T00:14:16.542Z,83.77
2019-03-16T00:16:44.899Z,83.78
2019-03-16T00:19:13.287Z,84.05
2019-03-16T00:21:41.687Z,84.39
2019-03-16T00:24:10.231Z,84.16
2019-03-16T00:26:38.999Z,83.81
2019-03-16T00:29:07.546Z,83.81
2019-03-16T00:31:36.311Z,83.65
2019-03-16T00:34:04.981Z,83.60
2019-03-16T00:36:33.687Z,83.60
2019-03-16T00:39:02.063Z,83.84
2019-03-16T00:41:30.461Z,83.92
2019-03-16T00:43:58.838Z,82.65
2019-03-16T00:46:27.673Z,83.12
2019-03-16T00:48:56.361Z,82.53
2019-03-16T00:51:25.052Z,82.53
2019-03-16T00:53:53.702Z,82.97
2019-03-16T00:56:22.146Z,83.84
2019-03-16T00:58:50.532Z,83.84
2019-03-16T01:01:18.922Z,83.98
2019-03-16T01:03:47.308Z,83.39
2019-03-16T01:06:15.711Z,82.38
2019-03-16T01:08:44.336Z,82.38
2019-03-16T01:11:12.726Z,80.24
2019-03-16T01:13:41.123Z,80.85
2019-03-16T01:16:09.524Z,80.85
2019-03-16T01:18:37.910Z,80.75
2019-03-16T01:21:06.372Z,80.36
2019-03-16T01:23:34.766Z,80.83
2019-03-16T01:26:03.428Z,80.32
2019-03-16T01:28:31.811Z,80.62
2019-03-16T01:31:00.197Z,80.88
2019-03-16T01:33:28.590Z,81.13
2019-03-16T01:35:57.246Z,81.74
2019-03-16T01:38:25.708Z,81.62
2019-03-16T01:40:54.332Z,81.63
2019-03-16T01:43:22.728Z,81.99
2019-03-16T01:45:51.112Z,81.19
2019-03-16T01:48:19.902Z,81.19
2019-03-16T01:50:48.604Z,81.38
2019-03-16T01:53:17.038Z,81.38
2019-03-16T01:55:45.397Z,81.27
2019-03-16T01:58:14.047Z,81.14
2019-03-16T02:00:42.607Z,80.16
2019-03-16T02:03:11.027Z,80.69
2019-03-16T02:05:39.731Z,80.79
2019-03-16T02:08:08.349Z,80.79
2019-03-16T02:10:36.801Z,80.76
2019-03-16T02:13:05.436Z,80.76
2019-03-16T02:15:34.060Z,80.52
2019-03-16T02:18:02.689Z,80.71
2019-03-16T02:20:31.089Z,80.95
2019-03-16T02:22:59.468Z,81.29
2019-03-16T02:25:27.955Z,81.29
2019-03-16T02:27:56.322Z,81.34
2019-03-16T02:30:25.014Z,81.34
2019-03-16T02:32:53.424Z,81.50
2019-03-16T02:35:21.818Z,81.62
2019-03-16T02:37:50.212Z,81.66
2019-03-16T02:40:18.944Z,81.71
2019-03-16T02:42:48.039Z,81.73
2019-03-16T02:45:16.446Z,81.73
2019-03-16T02:47:45.110Z,82.03
2019-03-16T02:50:13.836Z,82.02
2019-03-16T02:52:42.223Z,82.02
2019-03-16T02:55:10.697Z,82.21
2019-03-16T02:57:39.096Z,82.25
2019-03-16T03:00:12.875Z,82.39
2019-03-16T03:02:41.309Z,82.32
2019-03-16T03:05:10.286Z,82.37
2019-03-16T03:07:38.679Z,82.50
2019-03-16T03:10:10.005Z,82.55
2019-03-16T03:12:38.392Z,82.59
2019-03-16T03:15:08.101Z,82.60
2019-03-16T03:17:36.983Z,82.56
2019-03-16T03:20:07.623Z,82.63
2019-03-16T03:22:36.443Z,82.71
2019-03-16T03:25:05.847Z,82.84
2019-03-16T03:27:34.463Z,82.92
2019-03-16T03:30:02.922Z,82.96
2019-03-16T03:32:31.387Z,83.02
2019-03-16T03:34:59.735Z,83.14
2019-03-16T03:37:28.339Z,83.14
2019-03-16T03:39:56.747Z,83.06
2019-03-16T03:42:25.148Z,83.04
2019-03-16T03:44:53.771Z,83.04
2019-03-16T03:47:22.158Z,83.19
2019-03-16T03:49:50.558Z,83.37
2019-03-16T03:52:18.942Z,83.37
2019-03-16T03:54:47.660Z,83.27
2019-03-16T03:57:16.349Z,83.28
2019-03-16T03:59:44.733Z,83.28
2019-03-16T04:02:13.177Z,83.46
2019-03-16T04:04:41.931Z,83.46
2019-03-16T04:07:10.719Z,83.58
2019-03-16T04:09:39.118Z,83.58
2019-03-16T04:12:07.507Z,83.76
2019-03-16T04:14:36.317Z,83.79
2019-03-16T04:17:04.815Z,83.76
2019-03-16T04:19:33.224Z,83.81
2019-03-16T04:22:01.981Z,83.81
2019-03-16T04:24:30.724Z,83.89
2019-03-16T04:27:14.561Z,83.89
2019-03-16T04:29:29.237Z,83.86
2019-03-16T04:31:57.743Z,83.86
2019-03-16T04:34:29.576Z,83.79
2019-03-16T04:36:56.506Z,84.02
2019-03-16T04:39:25.024Z,84.02
2019-03-16T04:41:53.492Z,83.83
2019-03-16T04:44:21.899Z,84.06
2019-03-16T04:46:50.467Z,84.06
2019-03-16T04:49:18.863Z,84.03
2019-03-16T04:51:47.259Z,84.03
2019-03-16T04:54:16.118Z,84.15
2019-03-16T04:56:44.770Z,84.29
2019-03-16T04:59:13.464Z,84.29
2019-03-16T05:01:42.186Z,84.26
2019-03-16T05:04:10.564Z,84.29
2019-03-16T05:06:39.306Z,84.34
2019-03-16T05:09:08.074Z,84.34
2019-03-16T05:11:36.476Z,84.45
2019-03-16T05:14:05.433Z,84.41
2019-03-16T05:16:33.776Z,84.47
2019-03-16T05:19:02.183Z,84.47
2019-03-16T05:21:30.634Z,84.59
2019-03-16T05:23:59.023Z,84.59
2019-03-16T05:26:28.287Z,84.54
2019-03-16T05:28:56.685Z,84.54
2019-03-16T05:31:25.080Z,84.72
2019-03-16T05:33:53.469Z,84.83
2019-03-16T05:36:21.884Z,84.83
2019-03-16T05:38:50.263Z,84.88
2019-03-16T05:41:18.814Z,84.88
2019-03-16T05:43:47.966Z,84.86
2019-03-16T05:46:16.428Z,84.85
2019-03-16T05:48:44.825Z,85.01
2019-03-16T05:51:13.211Z,84.98
2019-03-16T05:53:41.707Z,84.98
2019-03-16T05:56:10.485Z,84.97
2019-03-16T05:58:38.873Z,84.97
2019-03-16T06:01:07.283Z,85.06
2019-03-16T06:03:35.679Z,85.14
2019-03-16T06:06:04.398Z,85.37
2019-03-16T06:08:32.886Z,85.26
2019-03-16T06:11:01.285Z,85.26
2019-03-16T06:13:29.953Z,85.22
2019-03-16T06:15:58.356Z,85.35
2019-03-16T06:18:26.913Z,84.97
2019-03-16T06:20:55.368Z,85.25
2019-03-16T06:23:24.072Z,85.25
2019-03-16T06:25:52.608Z,85.18
2019-03-16T06:28:21.034Z,85.12
2019-03-16T06:30:49.437Z,85.05
2019-03-16T06:33:17.826Z,85.38
2019-03-16T06:35:46.267Z,85.45
2019-03-16T06:38:14.660Z,85.35
2019-03-16T06:40:43.085Z,85.35
2019-03-16T06:43:11.532Z,85.37
2019-03-16T06:45:40.035Z,85.35
2019-03-16T06:48:08.789Z,85.35
2019-03-16T06:50:37.189Z,85.49
2019-03-16T06:53:05.678Z,85.47
2019-03-16T06:55:34.065Z,85.51
2019-03-16T06:58:02.482Z,85.45
2019-03-16T07:00:30.873Z,85.61
2019-03-16T07:02:59.577Z,85.61
2019-03-16T07:05:37.739Z,85.61
2019-03-16T07:07:58.091Z,85.60
2019-03-16T07:10:26.481Z,85.51
2019-03-16T07:12:55.240Z,85.60
2019-03-16T07:15:23.625Z,86.05
2019-03-16T07:17:52.024Z,86.18
2019-03-16T07:20:20.418Z,86.47
2019-03-16T07:22:48.816Z,86.47
2019-03-16T07:25:17.439Z,86.61
2019-03-16T07:27:45.860Z,86.84
2019-03-16T07:30:15.028Z,86.84
2019-03-16T07:32:43.710Z,86.94
2019-03-16T07:35:12.216Z,87.10
2019-03-16T07:37:40.617Z,87.34
2019-03-16T07:40:11.836Z,87.34
2019-03-16T07:42:40.202Z,87.33
2019-03-16T07:45:10.121Z,87.30
2019-03-16T07:47:38.794Z,86.99
2019-03-16T07:50:09.190Z,86.63
2019-03-16T07:52:37.597Z,86.63
2019-03-16T07:55:07.128Z,86.33
2019-03-16T07:57:40.536Z,86.18
2019-03-16T08:00:09.006Z,85.95
2019-03-16T08:02:37.436Z,85.37
2019-03-16T08:05:17.226Z,85.32
2019-03-16T08:07:36.558Z,85.09
2019-03-16T08:10:07.943Z,85.08
2019-03-16T08:12:36.355Z,85.08
2019-03-16T08:15:06.523Z,85.07
2019-03-16T08:17:34.869Z,84.50
2019-03-16T08:20:04.143Z,84.28
2019-03-16T08:22:32.531Z,84.15
2019-03-16T08:25:00.950Z,83.94
2019-03-16T08:27:29.335Z,83.72
2019-03-16T08:29:57.719Z,83.46
2019-03-16T08:32:26.125Z,83.46
2019-03-16T08:34:54.514Z,83.42
2019-03-16T08:37:22.934Z,83.62
2019-03-16T08:39:51.414Z,83.85
2019-03-16T08:42:19.840Z,84.07
2019-03-16T08:44:48.325Z,84.08
2019-03-16T08:47:16.996Z,84.03
2019-03-16T08:49:45.415Z,84.10
2019-03-16T08:52:13.821Z,84.22
2019-03-16T08:54:42.210Z,83.98
2019-03-16T08:57:10.599Z,84.04
2019-03-16T08:59:39.320Z,83.49
2019-03-16T09:02:07.705Z,83.49
2019-03-16T09:04:36.180Z,83.78
2019-03-16T09:07:04.664Z,83.52
2019-03-16T09:09:33.058Z,83.37
2019-03-16T09:12:01.454Z,82.44
2019-03-16T09:14:29.993Z,82.44
2019-03-16T09:16:58.490Z,82.69
2019-03-16T09:19:27.138Z,82.60
2019-03-16T09:21:55.528Z,82.11
2019-03-16T09:24:24.126Z,82.41
2019-03-16T09:26:52.526Z,82.40
2019-03-16T09:29:20.924Z,81.82
2019-03-16T09:31:49.651Z,81.68
2019-03-16T09:34:18.065Z,81.50
2019-03-16T09:36:47.023Z,81.33
2019-03-16T09:39:15.714Z,80.88
2019-03-16T09:41:44.835Z,80.88
2019-03-16T09:44:13.606Z,80.98
2019-03-16T09:46:42.013Z,80.50
2019-03-16T09:49:10.591Z,80.69
2019-03-16T09:51:39.512Z,80.68
2019-03-16T09:54:08.211Z,79.96
2019-03-16T09:56:36.676Z,80.01
2019-03-16T09:59:05.174Z,79.89
2019-03-16T10:01:33.605Z,79.20
2019-03-16T10:04:02.419Z,78.48
2019-03-16T10:06:30.805Z,78.71
2019-03-16T10:08:59.195Z,77.53
2019-03-16T10:11:27.943Z,77.47
2019-03-16T10:13:56.388Z,77.72
2019-03-16T10:16:24.841Z,76.65
2019-03-16T10:18:53.563Z,76.41
2019-03-16T10:21:22.039Z,76.28
2019-03-16T10:23:50.523Z,76.86
2019-03-16T10:26:19.360Z,77.01
2019-03-16T10:28:50.422Z,76.98
2019-03-16T10:31:18.959Z,76.76
2019-03-16T10:33:47.503Z,76.40
2019-03-16T10:36:15.913Z,76.16
2019-03-16T10:38:44.647Z,75.78
2019-03-16T10:41:13.280Z,75.98
2019-03-16T10:43:43.509Z,75.81
2019-03-16T10:46:11.990Z,75.84
2019-03-16T10:48:40.804Z,75.92
2019-03-16T10:51:09.214Z,75.81
2019-03-16T10:53:38.312Z,75.52
2019-03-16T10:56:06.706Z,75.50
2019-03-16T10:58:35.198Z,75.00
2019-03-16T11:01:04.025Z,72.89
2019-03-16T11:03:32.821Z,73.58
2019-03-16T11:06:01.994Z,73.41
2019-03-16T11:08:30.511Z,72.42
2019-03-16T11:10:58.896Z,72.52
2019-03-16T11:13:27.360Z,71.58
2019-03-16T11:15:55.742Z,71.24
2019-03-16T11:18:24.144Z,70.80
2019-03-16T11:20:52.522Z,69.32
2019-03-16T11:23:20.917Z,69.22
2019-03-16T11:25:49.309Z,69.68
2019-03-16T11:28:17.695Z,65.67
2019-03-16T11:30:46.202Z,66.72
2019-03-16T11:33:14.608Z,65.48
2019-03-16T11:35:43.160Z,66.25
2019-03-16T11:38:11.563Z,64.82
2019-03-16T11:40:40.040Z,65.66
2019-03-16T11:43:08.474Z,64.69
2019-03-16T11:45:36.912Z,64.93
2019-03-16T11:48:05.480Z,65.19
2019-03-16T11:50:33.954Z,65.79
2019-03-16T11:53:02.828Z,66.01
2019-03-16T11:55:31.485Z,65.45
2019-03-16T11:58:00.027Z,66.30
2019-03-16T12:00:29.063Z,66.67
2019-03-16T12:02:57.589Z,66.53
2019-03-16T12:05:25.967Z,65.53
2019-03-16T12:07:54.572Z,67.64
2019-03-16T12:10:25.518Z,66.94
2019-03-16T12:12:53.951Z,67.42
2019-03-16T12:15:22.340Z,67.46
2019-03-16T12:17:50.734Z,67.73
2019-03-16T12:20:19.116Z,67.30
2019-03-16T12:22:48.389Z,67.57
2019-03-16T12:25:16.779Z,67.72
2019-03-16T12:27:45.195Z,67.77
2019-03-16T12:30:15.094Z,67.92
2019-03-16T12:32:43.858Z,67.20
2019-03-16T12:35:12.274Z,66.89
2019-03-16T12:37:40.713Z,68.13
2019-03-16T12:40:15.507Z,66.41
2019-03-16T12:42:44.232Z,67.42
2019-03-16T12:45:15.383Z,67.44
2019-03-16T12:47:43.777Z,68.06
2019-03-16T12:50:12.323Z,67.46
2019-03-16T12:52:41.159Z,67.11
2019-03-16T12:55:11.677Z,67.68
2019-03-16T12:57:40.196Z,67.07
2019-03-16T13:00:13.713Z,66.92
2019-03-16T13:02:42.086Z,65.93
2019-03-16T13:05:11.238Z,66.79
2019-03-16T13:07:39.607Z,66.11
2019-03-16T13:10:18.313Z,66.10
2019-03-16T13:12:47.001Z,66.63
2019-03-16T13:15:15.791Z,66.39
2019-03-16T13:17:44.211Z,66.49
2019-03-16T13:20:16.455Z,66.41
2019-03-16T13:22:45.040Z,66.75
2019-03-16T13:25:13.536Z,66.58
2019-03-16T13:27:42.199Z,66.67
2019-03-16T13:30:15.789Z,66.07
2019-03-16T13:32:45.109Z,66.42
2019-03-16T13:35:13.987Z,66.46
2019-03-16T13:37:42.430Z,66.22
2019-03-16T13:40:13.115Z,66.46
2019-03-16T13:42:41.732Z,66.36
2019-03-16T13:45:10.561Z,66.10
2019-03-16T13:47:38.944Z,66.70
2019-03-16T13:50:15.739Z,66.05
2019-03-16T13:52:44.410Z,66.12
2019-03-16T13:55:13.197Z,66.20
2019-03-16T13:57:41.645Z,65.10
2019-03-16T14:00:18.290Z,65.83
2019-03-16T14:02:46.755Z,64.96
2019-03-16T14:05:15.261Z,65.59
2019-03-16T14:07:43.910Z,65.32
2019-03-16T14:10:18.311Z,66.00
2019-03-16T14:12:47.307Z,64.37
2019-03-16T14:15:16.945Z,64.88
2019-03-16T14:17:45.410Z,64.71
2019-03-16T14:20:15.667Z,65.11
2019-03-16T14:22:44.696Z,63.78
2019-03-16T14:25:13.578Z,64.22
2019-03-16T14:27:41.907Z,63.57
2019-03-16T14:30:29.049Z,62.62
2019-03-16T14:32:43.476Z,63.54
2019-03-16T14:35:12.463Z,63.17
2019-03-16T14:37:40.941Z,63.09
2019-03-16T14:40:12.690Z,63.13
2019-03-16T14:42:41.247Z,63.92
2019-03-16T14:45:16.478Z,62.60
2019-03-16T14:47:44.970Z,63.35
2019-03-16T14:50:16.627Z,62.97
2019-03-16T14:52:45.094Z,63.02
2019-03-16T14:55:13.595Z,62.37
2019-03-16T14:57:42.362Z,63.22
2019-03-16T15:00:15.529Z,62.34
2019-03-16T15:02:46.293Z,62.52
2019-03-16T15:05:14.535Z,63.21
2019-03-16T15:07:42.919Z,62.76
2019-03-16T15:10:13.393Z,62.51
2019-03-16T15:12:42.022Z,62.96
2019-03-16T15:15:12.708Z,62.12
2019-03-16T15:17:41.089Z,62.63
2019-03-16T15:20:10.880Z,62.45
2019-03-16T15:22:39.322Z,62.34
2019-03-16T15:25:11.395Z,61.84
2019-03-16T15:27:40.036Z,62.13
2019-03-16T15:30:18.920Z,61.61
2019-03-16T15:32:47.361Z,61.14
2019-03-16T15:35:16.002Z,60.99
2019-03-16T15:37:44.400Z,61.24
2019-03-16T15:40:16.714Z,61.22
2019-03-16T15:42:45.131Z,61.51
2019-03-16T15:45:21.361Z,60.50
2019-03-16T15:47:49.962Z,60.60
2019-03-16T15:50:18.401Z,60.59
2019-03-16T15:52:46.844Z,60.64
2019-03-16T15:55:15.304Z,60.58
2019-03-16T15:57:45.010Z,60.56
2019-03-16T16:00:18.418Z,60.60
2019-03-16T16:02:47.072Z,60.28
2019-03-16T16:05:15.445Z,60.28
2019-03-16T16:07:43.863Z,60.45
2019-03-16T16:10:17.225Z,60.28
2019-03-16T16:12:45.699Z,60.33
2019-03-16T16:15:15.002Z,61.12
2019-03-16T16:17:43.458Z,60.06
2019-03-16T16:20:20.620Z,59.56
2019-03-16T16:22:49.011Z,59.51
2019-03-16T16:25:17.393Z,60.43
2019-03-16T16:27:45.766Z,60.28
2019-03-16T16:30:19.335Z,59.56
2019-03-16T16:32:47.973Z,59.99
2019-03-16T16:35:16.977Z,59.97
2019-03-16T16:37:45.434Z,60.12
2019-03-16T16:40:21.869Z,61.00
2019-03-16T16:42:50.320Z,59.92
2019-03-16T16:45:18.939Z,60.61
2019-03-16T16:47:47.587Z,60.20
2019-03-16T16:50:25.557Z,60.40
2019-03-16T16:52:54.120Z,60.32
2019-03-16T16:55:22.493Z,60.69
2019-03-16T16:57:51.063Z,60.30
2019-03-16T17:00:24.711Z,59.89
2019-03-16T17:02:53.147Z,59.80
2019-03-16T17:05:21.573Z,60.08
2019-03-16T17:07:50.101Z,59.63
2019-03-16T17:10:19.612Z,58.95
2019-03-16T17:12:48.267Z,59.12
2019-03-16T17:15:20.921Z,59.09
2019-03-16T17:17:49.310Z,59.17
2019-03-16T17:20:17.799Z,58.74
2019-03-16T17:22:46.517Z,58.69
2019-03-16T17:25:15.936Z,58.94
2019-03-16T17:27:44.322Z,59.26
2019-03-16T17:30:24.873Z,58.45
2019-03-16T17:32:53.268Z,59.05
2019-03-16T17:35:21.695Z,59.42
2019-03-16T17:37:50.519Z,59.09
2019-03-16T17:40:18.894Z,59.25
2019-03-16T17:42:47.356Z,59.42
2019-03-16T17:45:15.845Z,59.05
2019-03-16T17:47:44.662Z,60.09
2019-03-16T17:50:14.174Z,59.70
2019-03-16T17:52:42.809Z,59.12
2019-03-16T17:55:14.233Z,59.50
2019-03-16T17:57:45.298Z,60.19
2019-03-16T18:00:18.479Z,59.54
2019-03-16T18:02:51.661Z,60.34
2019-03-16T18:05:17.329Z,60.19
2019-03-16T18:07:45.751Z,60.39
2019-03-16T18:10:14.947Z,60.98
2019-03-16T18:12:43.414Z,61.11
2019-03-16T18:15:14.211Z,60.84
2019-03-16T18:17:42.692Z,61.06
2019-03-16T18:20:17.397Z,60.73
2019-03-16T18:22:46.726Z,61.17
2019-03-16T18:25:15.781Z,61.31
2019-03-16T18:27:44.172Z,61.94
2019-03-16T18:30:16.174Z,61.00
2019-03-16T18:32:44.836Z,61.13
2019-03-16T18:35:13.221Z,61.31
2019-03-16T18:37:41.688Z,61.99
2019-03-16T18:40:15.503Z,61.68
2019-03-16T18:42:43.905Z,62.03
2019-03-16T18:45:21.331Z,62.23
2019-03-16T18:47:49.755Z,61.65
2019-03-16T18:50:18.253Z,62.13
2019-03-16T18:52:46.733Z,62.42
2019-03-16T18:55:15.425Z,62.64
2019-03-16T18:57:44.097Z,62.44
2019-03-16T19:00:15.061Z,62.56
2019-03-16T19:02:43.723Z,62.78
2019-03-16T19:05:12.644Z,62.64
2019-03-16T19:07:41.132Z,62.79
2019-03-16T19:10:18.792Z,62.45
2019-03-16T19:12:47.242Z,62.61
2019-03-16T19:15:17.891Z,62.54
2019-03-16T19:17:57.940Z,62.02
2019-03-16T19:20:17.626Z,61.73
2019-03-16T19:22:46.455Z,62.24
2019-03-16T19:25:22.341Z,62.42
2019-03-16T19:27:51.361Z,62.22
2019-03-16T19:30:20.150Z,62.17
2019-03-16T19:32:48.630Z,61.95
2019-03-16T19:35:17.153Z,61.60
2019-03-16T19:37:45.602Z,62.40
2019-03-16T19:40:18.824Z,62.08
2019-03-16T19:42:47.536Z,62.18
2019-03-16T19:45:16.427Z,62.80
2019-03-16T19:47:44.869Z,63.01
2019-03-16T19:50:16.337Z,63.11
2019-03-16T19:52:44.786Z,62.99
2019-03-16T19:55:14.704Z,62.89
2019-03-16T19:57:43.794Z,63.28
2019-03-16T20:00:18.498Z,63.25
2019-03-16T20:02:51.029Z,63.56
2019-03-16T20:05:17.085Z,63.91
2019-03-16T20:07:45.836Z,64.09
2019-03-16T20:10:15.580Z,64.15
2019-03-16T20:12:44.225Z,64.67
2019-03-16T20:15:14.159Z,64.91
2019-03-16T20:17:42.615Z,65.10
2019-03-16T20:20:15.777Z,65.31
2019-03-16T20:22:44.190Z,65.57
2019-03-16T20:25:12.892Z,65.68
2019-03-16T20:27:41.488Z,65.68
2019-03-16T20:30:14.007Z,65.64
2019-03-16T20:32:42.835Z,65.60
2019-03-16T20:35:11.560Z,65.61
2019-03-16T20:37:40.232Z,66.01
2019-03-16T20:40:13.772Z,66.53
2019-03-16T20:42:42.181Z,66.83
2019-03-16T20:45:11.884Z,66.83
2019-03-16T20:47:40.583Z,66.71
2019-03-16T20:50:14.787Z,66.53
2019-03-16T20:52:43.236Z,66.53
2019-03-16T20:55:11.876Z,66.09
2019-03-16T20:57:41.046Z,66.09
2019-03-16T21:00:12.528Z,66.14
2019-03-16T21:02:40.934Z,65.89
2019-03-16T21:05:10.731Z,66.02
2019-03-16T21:07:39.176Z,66.02
2019-03-16T21:10:12.140Z,65.83
2019-03-16T21:12:40.599Z,65.93
2019-03-16T21:15:11.474Z,66.18
2019-03-16T21:17:39.938Z,66.18
2019-03-16T21:20:16.138Z,66.01
2019-03-16T21:22:44.614Z,65.94
2019-03-16T21:25:14.548Z,65.94
2019-03-16T21:27:42.944Z,66.15
2019-03-16T21:30:14.371Z,66.06
2019-03-16T21:32:42.771Z,65.98
2019-03-16T21:35:11.227Z,65.82
2019-03-16T21:37:39.628Z,65.72
2019-03-16T21:40:10.768Z,65.63
2019-03-16T21:42:39.504Z,65.94
2019-03-16T21:45:12.164Z,65.77
2019-03-16T21:47:40.544Z,65.77
2019-03-16T21:50:13.564Z,65.89
2019-03-16T21:52:44.419Z,65.96
2019-03-16T21:55:13.586Z,65.95
2019-03-16T21:57:42.403Z,65.62
2019-03-16T22:00:13.185Z,65.81
2019-03-16T22:02:41.615Z,65.74
2019-03-16T22:05:10.827Z,65.74
2019-03-16T22:07:39.587Z,65.15
2019-03-16T22:10:20.070Z,65.25
2019-03-16T22:12:48.496Z,65.25
2019-03-16T22:15:17.509Z,65.93
2019-03-16T22:17:46.470Z,65.77
2019-03-16T22:20:21.690Z,65.84
2019-03-16T22:22:50.097Z,65.84
2019-03-16T22:25:18.917Z,65.46
2019-03-16T22:27:47.306Z,65.39
2019-03-16T22:30:17.097Z,65.39
2019-03-16T22:32:45.549Z,65.39
2019-03-16T22:35:14.282Z,65.48
2019-03-16T22:37:42.965Z,65.64
2019-03-16T22:40:17.368Z,65.54
2019-03-16T22:42:45.800Z,65.54
2019-03-16T22:45:15.286Z,65.41
2019-03-16T22:47:43.949Z,65.14
2019-03-16T22:50:19.923Z,65.31
2019-03-16T22:52:48.513Z,65.10
2019-03-16T22:55:16.893Z,65.52
2019-03-16T22:57:45.689Z,65.74
2019-03-16T23:00:21.047Z,65.52
2019-03-16T23:02:49.490Z,65.82
2019-03-16T23:05:18.010Z,66.15
2019-03-16T23:07:46.521Z,65.97
2019-03-16T23:10:15.012Z,65.97
2019-03-16T23:12:43.507Z,66.29
2019-03-16T23:15:12.325Z,66.29
2019-03-16T23:17:40.791Z,66.26
2019-03-16T23:20:10.126Z,66.65
2019-03-16T23:22:38.878Z,66.70
2019-03-16T23:25:09.808Z,66.87
2019-03-16T23:27:38.495Z,67.04
2019-03-16T23:30:08.528Z,66.70
2019-03-16T23:32:36.922Z,66.66
2019-03-16T23:35:07.144Z,66.66
2019-03-16T23:37:35.801Z,66.45
2019-03-16T23:40:06.766Z,66.15
2019-03-16T23:42:35.421Z,66.05
2019-03-16T23:45:05.959Z,65.91
2019-03-16T23:47:34.348Z,64.74
2019-03-16T23:50:02.823Z,64.40
2019-03-16T23:52:31.227Z,64.20
2019-03-16T23:54:59.877Z,64.19
2019-03-16T23:57:28.266Z,64.27
2019-03-16T23:59:56.656Z,63.69
